Ana Sayfa
METAR-TAF:

METAR-TAF

Havaalanları :

N'Djamena, Çad

Enlem: 12-08N, Boylam: 015-02E, yükseklik: 295 m

Güncel hava durumu gözlemi

Rapor saat 05:00 UTC de 40 dakika önce yapıldı.
Rüzgar kuzeydan 9 kt
Sıcaklık 19°C
Nem 26%
Basınç 1013 hPa
Görüş mesafesi: 6000 m

METAR: FTTJ 240500Z 01009KT 6000 NSC 19/M01 Q1013 NOSIG

Saat: 06:40 (05:40 UTC)

Tahmin

Rapor saat 23:00 UTC de 6 saat ve 40 dakika önce yapıldı.
Ayın 24'si saat 00 UTC'den ayın 25'si saat 06 UTC'ye kadar geçerli Tahmin
Rüzgar kuzeydan 10 kt
Görüş mesafesi: 4000 m
yaygın toz
Geçici
ayın 24'si saat 07 UTC'den ayın 24'si saat 12 UTC'ye kadar
Rüzgar kuzey/kuzeydoğudan 20 kt
Savrulan toz
Dönüşüyor
ayın 24'si saat 12 UTC'den ayın 24'si saat 14 UTC'ye kadar
Görüş mesafesi: 6000 m
Dönüşüyor
ayın 24'si saat 16 UTC'den ayın 24'si saat 18 UTC'ye kadar
Görüş mesafesi: 2500 m
yaygın toz

TAF: FTTJ 232300Z 2400/2506 01010KT 4000 DU NSC TEMPO 2407/2412 02020KT BLDU BECMG 2412/2414 6000 NSW BECMG 2416/2418 2500 DU

4.000'den fazla havaalanı için hava durumu gözlemleri ve tahminleri (METAR ve TAF raporları).

Kullanılabilir istasyonlar harita üzerinde sarı ve kırmızı noktalarla gösterilir.

İstasyonun adını görmek için fareyi noktanın üzerinde gezdirin.

Sonrasında hava gözlem ve tahminlerini görmek için tıklayın.

Haritayı değiştirmek için: yaklaştırmak için siyah artı işaretli yeşil düğmeye ve uzaklaştırmak için de eksi işaretli düğmeye hızla tıklayın; bitişik haritalar için yeşil okları kullanın.


METAR-TAF: